Time;durP1;ratioP1;P1;durP2;ratioP2;P2;SDS_P1;SDS_P2;PMS_P1;PMS_P2;Temp;Humidity;BMP_temperature;BMP_pressure;BME280_temperature;BME280_humidity;BME280_pressure;Samples;Min_cycle;Max_cycle;Signal;HPM_P1;HPM_P2
2022/10/11 00:01:21;;;;;;;8.63;1.92;;;10.70;99.90;;;;;;4829916;29;20099;-65
2022/10/11 00:03:48;;;;;;;2.47;2.00;;;10.70;99.90;;;;;;4829030;29;20344;-65
2022/10/11 00:06:15;;;;;;;3.97;1.83;;;10.70;99.90;;;;;;4834650;29;20049;-65
2022/10/11 00:08:42;;;;;;;;;;;10.70;99.90;;;;;;4831643;29;20044;-66
2022/10/11 00:11:09;;;;;;;5.00;2.53;;;10.70;99.90;;;;;;4833520;29;20150;-66
2022/10/11 00:13:36;;;;;;;13.95;2.75;;;10.70;99.90;;;;;;4828703;29;20499;-65
2022/10/11 00:16:08;;;;;;;3.90;1.92;;;10.70;99.90;;;;;;4828187;29;20436;-66
2022/10/11 00:18:35;;;;;;;5.60;2.67;;;10.70;99.90;;;;;;4833193;29;20067;-66
2022/10/11 00:21:14;;;;;;;9.13;2.50;;;10.80;99.90;;;;;;4838745;29;20064;-65
2022/10/11 00:23:42;;;;;;;8.98;2.60;;;10.80;99.90;;;;;;4831017;29;20172;-66
2022/10/11 00:26:09;;;;;;;5.93;2.67;;;10.80;99.90;;;;;;4838043;29;20351;-66
2022/10/11 00:28:37;;;;;;;10.45;3.05;;;10.90;99.90;;;;;;4840708;29;20053;-66
2022/10/11 00:31:09;;;;;;;8.63;2.88;;;10.90;99.90;;;;;;4833060;29;20057;-64
2022/10/11 00:33:36;;;;;;;3.88;2.35;;;10.90;99.90;;;;;;4833898;29;20084;-65
2022/10/11 00:36:04;;;;;;;5.10;2.13;;;11.00;99.90;;;;;;4836808;29;20057;-66
2022/10/11 00:38:31;;;;;;;5.72;2.80;;;11.10;99.90;;;;;;4834748;29;20041;-65
2022/10/11 00:40:58;;;;;;;5.07;2.40;;;11.10;99.90;;;;;;4836898;29;20061;-64
2022/10/11 00:43:28;;;;;;;9.10;2.30;;;11.20;99.90;;;;;;4832995;29;20544;-66
2022/10/11 00:45:55;;;;;;;3.72;2.35;;;11.20;99.90;;;;;;4837443;29;20812;-66
2022/10/11 00:48:41;;;;;;;10.85;2.90;;;11.20;99.90;;;;;;4836278;29;20408;-66
2022/10/11 00:51:35;;;;;;;2.90;2.20;;;11.20;99.90;;;;;;4838012;29;20081;-66
2022/10/11 00:54:03;;;;;;;6.25;2.35;;;11.30;99.90;;;;;;4832762;29;20664;-66
2022/10/11 00:56:34;;;;;;;9.68;2.72;;;11.30;99.90;;;;;;4837621;29;20509;-66
2022/10/11 00:59:05;;;;;;;3.40;2.30;;;11.30;99.90;;;;;;4832846;29;20576;-66
2022/10/11 01:01:32;;;;;;;11.73;3.35;;;11.30;99.90;;;;;;4835019;29;20520;-65
2022/10/11 01:04:00;;;;;;;8.60;2.50;;;11.30;99.90;;;;;;4839556;29;20054;-65
2022/10/11 01:06:27;;;;;;;6.05;2.40;;;11.30;99.90;;;;;;4836294;29;20045;-66
2022/10/11 01:08:55;;;;;;;4.20;2.20;;;11.30;99.90;;;;;;4835796;29;20403;-65
2022/10/11 01:11:24;;;;;;;5.95;2.35;;;11.40;99.90;;;;;;4835343;29;20476;-66
2022/10/11 01:13:57;;;;;;;5.72;1.92;;;11.40;99.90;;;;;;4833128;29;20054;-66
2022/10/11 01:16:28;;;;;;;5.35;2.17;;;11.40;99.90;;;;;;4833584;29;20552;-66
2022/10/11 01:19:03;;;;;;;3.40;2.20;;;11.40;99.90;;;;;;4837273;29;20113;-65
2022/10/11 01:21:41;;;;;;;5.00;2.28;;;11.40;99.90;;;;;;4838594;29;20067;-65
2022/10/11 01:24:11;;;;;;;;;;;11.40;99.90;;;;;;4837927;29;20409;-66
2022/10/11 01:27:09;;;;;;;9.70;2.90;;;11.40;99.90;;;;;;4841595;29;20006;-65
2022/10/11 01:30:02;;;;;;;10.52;3.08;;;11.40;99.90;;;;;;4818866;29;20454;-66
2022/10/11 01:32:55;;;;;;;11.25;2.88;;;11.40;99.90;;;;;;4833089;29;20653;-66
2022/10/11 01:35:22;;;;;;;9.15;3.20;;;11.40;99.90;;;;;;4835058;29;20408;-65
2022/10/11 01:37:58;;;;;;;3.63;2.35;;;11.40;99.90;;;;;;4836245;29;20572;-65
2022/10/11 01:40:35;;;;;;;7.57;2.83;;;11.40;99.90;;;;;;4835932;29;20536;-66
2022/10/11 01:43:03;;;;;;;19.45;3.08;;;11.40;99.90;;;;;;4838412;29;20439;-66
2022/10/11 01:45:31;;;;;;;6.53;2.92;;;11.40;99.90;;;;;;4839864;29;20362;-66
2022/10/11 01:48:04;;;;;;;5.18;2.33;;;11.50;99.90;;;;;;4830736;29;20098;-66
2022/10/11 01:50:45;;;;;;;6.40;2.38;;;11.50;99.90;;;;;;4837873;29;20359;-65
2022/10/11 01:53:46;;;;;;;9.63;3.47;;;11.50;99.90;;;;;;4836026;29;20568;-65
2022/10/11 01:56:33;;;;;;;3.97;2.65;;;11.50;99.90;;;;;;4834521;29;20053;-66
2022/10/11 01:59:19;;;;;;;9.57;3.20;;;11.50;99.90;;;;;;4834336;29;20061;-65
2022/10/11 02:02:13;;;;;;;7.50;3.15;;;11.50;99.90;;;;;;4832618;29;20299;-66
2022/10/11 02:04:47;;;;;;;4.40;2.60;;;11.50;99.90;;;;;;4833029;29;20255;-66
2022/10/11 02:07:38;;;;;;;5.13;2.58;;;11.50;99.90;;;;;;4837037;29;20439;-65
2022/10/11 02:10:14;;;;;;;4.35;2.60;;;11.50;99.90;;;;;;4831841;29;20140;-65
2022/10/11 02:12:51;;;;;;;3.58;2.50;;;11.50;99.90;;;;;;4831622;29;20129;-66
2022/10/11 02:15:19;;;;;;;12.18;2.97;;;11.50;99.90;;;;;;4817286;29;20126;-66
2022/10/11 02:17:51;;;;;;;5.32;2.88;;;11.50;99.90;;;;;;4834416;29;20130;-66
2022/10/11 02:20:21;;;;;;;3.90;2.22;;;11.50;99.90;;;;;;4833794;29;20090;-65
2022/10/11 02:22:54;;;;;;;2.85;2.08;;;11.50;99.90;;;;;;4833005;29;20057;-65
2022/10/11 02:25:25;;;;;;;4.22;2.20;;;11.50;99.90;;;;;;4834049;29;20686;-65
2022/10/11 02:27:55;;;;;;;3.45;2.33;;;11.40;99.90;;;;;;4838386;29;20219;-66
2022/10/11 02:30:22;;;;;;;5.13;2.28;;;11.40;99.90;;;;;;4836494;29;20045;-66
2022/10/11 02:32:51;;;;;;;5.18;2.60;;;11.40;99.90;;;;;;4835598;29;20536;-66
2022/10/11 02:35:19;;;;;;;3.90;2.30;;;11.40;99.90;;;;;;4831215;29;20054;-65
2022/10/11 02:37:56;;;;;;;9.75;3.08;;;11.40;99.90;;;;;;4828015;29;20061;-66
2022/10/11 02:40:32;;;;;;;6.05;3.78;;;11.40;99.90;;;;;;4837311;29;20075;-66
2022/10/11 02:43:06;;;;;;;4.03;2.05;;;11.40;99.90;;;;;;4829923;29;20144;-65
2022/10/11 02:45:42;;;;;;;3.08;2.17;;;11.40;99.90;;;;;;4830858;29;20701;-66
2022/10/11 02:48:11;;;;;;;3.75;2.65;;;11.30;99.90;;;;;;4832462;29;20045;-66
2022/10/11 02:50:39;;;;;;;5.95;2.65;;;11.40;99.90;;;;;;4835089;29;20562;-66
2022/10/11 02:53:07;;;;;;;6.82;2.95;;;11.40;99.90;;;;;;4836964;29;20057;-65
2022/10/11 02:55:34;;;;;;;4.80;2.80;;;11.40;99.90;;;;;;4834557;29;20050;-66
2022/10/11 02:58:01;;;;;;;4.65;2.75;;;11.40;99.90;;;;;;4832114;29;20335;-65
2022/10/11 03:00:28;;;;;;;;;;;11.40;99.90;;;;;;4835313;29;20055;-66
2022/10/11 03:02:55;;;;;;;4.05;2.47;;;11.40;99.90;;;;;;4836613;29;19967;-65
2022/10/11 03:05:22;;;;;;;7.32;3.03;;;11.40;99.90;;;;;;4828781;29;20483;-66
2022/10/11 03:07:48;;;;;;;3.88;2.88;;;11.40;99.90;;;;;;4833254;29;20456;-66
2022/10/11 03:10:15;;;;;;;4.90;2.70;;;11.40;99.90;;;;;;4831358;29;20128;-66
2022/10/11 03:12:42;;;;;;;;;;;11.40;99.90;;;;;;4831113;29;20046;-66
2022/10/11 03:15:09;;;;;;;6.80;2.85;;;11.40;99.90;;;;;;4831848;29;19938;-65
2022/10/11 03:17:36;;;;;;;8.52;2.47;;;11.40;99.90;;;;;;4828357;29;20258;-66
2022/10/11 03:20:04;;;;;;;5.47;3.25;;;11.40;99.90;;;;;;4830723;29;20076;-65
2022/10/11 03:22:31;;;;;;;11.55;3.00;;;11.40;99.90;;;;;;4836966;29;20355;-65
2022/10/11 03:24:58;;;;;;;;;;;11.30;99.90;;;;;;4840408;29;20596;-66
2022/10/11 03:27:30;;;;;;;15.63;3.13;;;11.40;99.90;;;;;;4831693;29;20238;-65
2022/10/11 03:29:56;;;;;;;5.65;2.85;;;11.40;99.90;;;;;;4833174;29;20050;-66
2022/10/11 03:32:24;;;;;;;5.68;3.08;;;11.40;99.90;;;;;;4833018;29;20052;-65
2022/10/11 03:34:50;;;;;;;7.18;3.63;;;11.40;99.90;;;;;;4832190;29;20286;-67
2022/10/11 03:37:17;;;;;;;9.45;4.22;;;11.40;99.90;;;;;;4830050;29;20048;-66
2022/10/11 03:39:44;;;;;;;7.15;3.03;;;11.40;99.90;;;;;;4831101;29;20347;-66
2022/10/11 03:42:12;;;;;;;7.00;3.00;;;11.40;99.90;;;;;;4829622;29;20599;-66
2022/10/11 03:44:40;;;;;;;13.05;3.38;;;11.30;99.90;;;;;;4830524;29;20408;-65
2022/10/11 03:47:07;;;;;;;9.63;3.38;;;11.40;99.90;;;;;;4830329;29;20439;-65
2022/10/11 03:49:33;;;;;;;;;;;11.40;99.90;;;;;;4831477;29;20045;-66
2022/10/11 03:52:04;;;;;;;12.00;3.00;;;11.40;99.90;;;;;;4836198;29;19935;-65
2022/10/11 03:54:31;;;;;;;5.05;2.60;;;11.40;99.90;;;;;;4836074;29;20045;-65
2022/10/11 03:56:57;;;;;;;4.03;2.80;;;11.40;99.90;;;;;;4841990;29;20659;-65
2022/10/11 03:59:24;;;;;;;;;;;11.40;99.90;;;;;;4842738;29;20319;-65
2022/10/11 04:01:51;;;;;;;6.32;2.97;;;11.40;99.90;;;;;;4836489;29;20537;-66
2022/10/11 04:04:17;;;;;;;;;;;11.40;99.90;;;;;;4835779;29;20152;-65
2022/10/11 04:06:44;;;;;;;6.40;4.10;;;11.50;99.90;;;;;;4836692;29;19935;-65
2022/10/11 04:09:11;;;;;;;7.72;3.50;;;11.50;99.90;;;;;;4837448;29;20516;-66
2022/10/11 04:11:37;;;;;;;10.43;3.38;;;11.50;99.90;;;;;;4836618;29;20052;-66
2022/10/11 04:14:04;;;;;;;16.45;4.57;;;11.50;99.90;;;;;;4837442;29;20051;-66
2022/10/11 04:16:31;;;;;;;11.82;3.92;;;11.50;99.90;;;;;;4839818;29;20186;-66
2022/10/11 04:18:58;;;;;;;3.97;3.10;;;11.50;99.90;;;;;;4839347;29;20508;-65
2022/10/11 04:21:24;;;;;;;;;;;11.50;99.90;;;;;;4833548;29;20057;-64
2022/10/11 04:23:51;;;;;;;7.53;2.80;;;11.50;99.90;;;;;;4832277;29;19932;-65
2022/10/11 04:26:17;;;;;;;7.50;3.38;;;11.50;99.90;;;;;;4837271;29;20515;-65
2022/10/11 04:28:44;;;;;;;5.30;3.05;;;11.50;99.90;;;;;;4838025;29;20444;-66
2022/10/11 04:31:11;;;;;;;;;;;11.50;99.90;;;;;;4842145;29;20057;-65
2022/10/11 04:33:38;;;;;;;7.83;3.20;;;11.50;99.90;;;;;;4839147;29;20041;-65
2022/10/11 04:36:05;;;;;;;10.48;3.60;;;11.50;99.90;;;;;;4835893;29;20049;-65
2022/10/11 04:38:33;;;;;;;5.57;3.53;;;11.50;99.90;;;;;;4838214;29;20053;-66
2022/10/11 04:41:11;;;;;;;8.27;3.22;;;11.40;99.90;;;;;;4835418;29;20060;-65
2022/10/11 04:43:38;;;;;;;8.23;3.30;;;11.40;99.90;;;;;;4832085;29;20444;-65
2022/10/11 04:46:06;;;;;;;6.50;4.10;;;11.40;99.90;;;;;;4838430;29;20228;-66
2022/10/11 04:48:33;;;;;;;7.15;3.20;;;11.40;99.90;;;;;;4834233;29;20053;-66
2022/10/11 04:51:00;;;;;;;3.47;2.80;;;11.40;99.90;;;;;;4838057;29;20061;-65
2022/10/11 04:53:27;;;;;;;;;;;11.40;99.90;;;;;;4838461;29;20608;-65
2022/10/11 04:56:04;;;;;;;5.35;3.15;;;11.40;99.90;;;;;;4834779;29;19967;-65
2022/10/11 04:58:33;;;;;;;8.43;3.97;;;11.40;99.90;;;;;;4833721;29;20060;-65
2022/10/11 05:01:00;;;;;;;9.80;4.53;;;11.40;99.90;;;;;;4835591;29;20046;-66
2022/10/11 05:03:27;;;;;;;6.47;3.38;;;11.40;99.90;;;;;;4829284;29;20460;-65
2022/10/11 05:05:54;;;;;;;8.10;4.28;;;11.40;99.90;;;;;;4835495;29;20833;-66
2022/10/11 05:08:22;;;;;;;7.32;4.03;;;11.40;99.90;;;;;;4835335;29;20057;-66
2022/10/11 05:10:56;;;;;;;12.60;4.35;;;11.40;99.90;;;;;;4831960;29;20499;-65
2022/10/11 05:13:24;;;;;;;12.52;4.13;;;11.40;99.90;;;;;;4838587;29;20044;-65
2022/10/11 05:15:51;;;;;;;11.88;4.68;;;11.40;99.90;;;;;;4835016;29;20297;-66
2022/10/11 05:18:18;;;;;;;24.55;6.00;;;11.30;99.90;;;;;;4829919;29;20507;-67
2022/10/11 05:20:45;;;;;;;8.80;4.63;;;11.30;99.90;;;;;;4832129;29;20057;-65
2022/10/11 05:23:12;;;;;;;10.93;4.07;;;11.30;99.90;;;;;;4837222;29;20059;-65
2022/10/11 05:25:39;;;;;;;10.73;4.72;;;11.20;99.90;;;;;;4833753;29;20057;-65
2022/10/11 05:28:05;;;;;;;;;;;11.20;99.90;;;;;;4835378;29;20073;-66
2022/10/11 05:30:32;;;;;;;11.45;4.60;;;11.20;99.90;;;;;;4837073;29;19927;-66
2022/10/11 05:32:59;;;;;;;12.95;4.50;;;11.10;99.90;;;;;;4837472;29;20458;-65
2022/10/11 05:35:25;;;;;;;;;;;11.10;99.90;;;;;;4838950;29;20042;-66
2022/10/11 05:37:52;;;;;;;14.73;4.68;;;11.10;99.90;;;;;;4835147;29;19954;-66
2022/10/11 05:40:19;;;;;;;18.65;6.32;;;11.00;99.90;;;;;;4834541;29;20339;-66
2022/10/11 05:42:45;;;;;;;13.27;4.90;;;11.00;99.90;;;;;;4832790;29;20049;-65
2022/10/11 05:45:12;;;;;;;;;;;10.90;99.90;;;;;;4840514;29;20128;-65
2022/10/11 05:47:39;;;;;;;12.70;4.88;;;10.90;99.90;;;;;;4839668;29;20003;-65
2022/10/11 05:50:06;;;;;;;11.90;5.20;;;10.90;99.90;;;;;;4833476;29;20682;-66
2022/10/11 05:52:32;;;;;;;14.23;4.63;;;10.80;99.90;;;;;;4836375;29;20156;-65
2022/10/11 05:54:59;;;;;;;21.27;5.00;;;10.80;99.90;;;;;;4833108;29;20049;-66
2022/10/11 05:57:26;;;;;;;12.30;5.50;;;10.80;99.90;;;;;;4831792;29;20148;-64
2022/10/11 05:59:53;;;;;;;22.15;5.05;;;10.80;99.90;;;;;;4835098;29;20058;-54
2022/10/11 06:02:19;;;;;;;9.27;4.68;;;10.80;99.90;;;;;;4837444;29;20046;-54
2022/10/11 06:04:46;;;;;;;;;;;10.80;99.90;;;;;;4813686;29;20284;-54
2022/10/11 06:07:13;;;;;;;11.55;4.47;;;10.80;99.90;;;;;;4838845;29;19974;-52
2022/10/11 06:09:39;;;;;;;7.45;4.60;;;10.80;99.90;;;;;;4830082;29;20045;-52
2022/10/11 06:12:06;;;;;;;;;;;10.90;99.90;;;;;;4837047;29;20058;-53
2022/10/11 06:14:33;;;;;;;5.63;3.78;;;10.90;99.90;;;;;;4832346;29;20115;-54
2022/10/11 06:16:59;;;;;;;10.48;4.15;;;10.90;99.90;;;;;;4830906;29;20599;-55
2022/10/11 06:19:26;;;;;;;10.70;4.15;;;11.00;99.90;;;;;;4831791;29;20053;-54
2022/10/11 06:21:53;;;;;;;;;;;11.00;99.90;;;;;;4830850;29;20045;-55
2022/10/11 06:24:20;;;;;;;7.53;4.53;;;11.00;99.90;;;;;;4833391;29;20043;-55
2022/10/11 06:26:48;;;;;;;10.88;4.20;;;11.10;99.90;;;;;;4837737;29;20363;-49
2022/10/11 06:29:14;;;;;;;8.88;4.80;;;11.20;99.90;;;;;;4833213;29;20046;-50
2022/10/11 06:31:41;;;;;;;9.98;5.18;;;11.20;99.90;;;;;;4832628;29;20060;-56
2022/10/11 06:34:08;;;;;;;;;;;11.30;99.90;;;;;;4835921;29;20503;-54
2022/10/11 06:36:35;;;;;;;11.82;5.07;;;11.40;99.90;;;;;;4830540;29;19928;-55
2022/10/11 06:39:01;;;;;;;;;;;11.40;99.90;;;;;;4833865;29;20068;-54
2022/10/11 06:41:29;;;;;;;12.73;5.85;;;11.50;99.90;;;;;;4836110;29;20040;-54
2022/10/11 06:43:56;;;;;;;10.20;4.72;;;11.50;99.90;;;;;;4832891;29;20063;-51
2022/10/11 06:46:25;;;;;;;10.27;5.40;;;11.60;99.90;;;;;;4832682;29;20428;-49
2022/10/11 06:48:53;;;;;;;13.23;5.05;;;11.70;99.90;;;;;;4834217;29;20041;-53
2022/10/11 06:51:21;;;;;;;13.93;5.88;;;11.70;99.90;;;;;;4837174;29;20060;-56
2022/10/11 06:53:54;;;;;;;12.45;5.15;;;11.70;99.90;;;;;;4836305;29;20147;-54
2022/10/11 06:56:21;;;;;;;10.85;4.90;;;11.80;99.90;;;;;;4833225;29;20045;-53
2022/10/11 06:58:49;;;;;;;10.30;5.45;;;11.80;99.90;;;;;;4836954;29;20068;-54
2022/10/11 07:01:19;;;;;;;9.15;4.88;;;11.90;99.90;;;;;;4836379;29;20053;-53
2022/10/11 07:03:47;;;;;;;14.63;5.10;;;11.90;99.90;;;;;;4833165;29;20768;-55
2022/10/11 07:06:18;;;;;;;10.68;4.60;;;12.00;99.90;;;;;;4832585;29;20560;-51
2022/10/11 07:08:45;;;;;;;8.88;4.32;;;12.00;99.90;;;;;;4829620;29;20455;-58
2022/10/11 07:11:20;;;;;;;16.35;4.65;;;12.00;99.90;;;;;;4831021;29;20052;-53
2022/10/11 07:13:49;;;;;;;9.63;4.47;;;12.00;99.90;;;;;;4831051;29;20512;-55
2022/10/11 07:16:16;;;;;;;10.75;4.85;;;12.00;99.90;;;;;;4831904;29;20560;-55
2022/10/11 07:18:43;;;;;;;9.10;4.32;;;12.00;99.90;;;;;;4834938;29;20054;-52
2022/10/11 07:21:11;;;;;;;;;;;12.10;99.90;;;;;;4834043;29;20237;-51
2022/10/11 07:23:38;;;;;;;9.75;4.57;;;12.20;99.90;;;;;;4825767;29;19971;-53
2022/10/11 07:26:06;;;;;;;12.93;5.00;;;12.20;99.90;;;;;;4833708;29;20493;-50
2022/10/11 07:28:34;;;;;;;7.97;5.03;;;12.30;99.90;;;;;;4838899;29;20140;-52
2022/10/11 07:31:15;;;;;;;12.50;5.70;;;12.40;99.90;;;;;;4839350;29;20049;-53
2022/10/11 07:33:42;;;;;;;23.27;5.68;;;12.50;99.90;;;;;;4841029;29;20080;-56
2022/10/11 07:36:10;;;;;;;13.02;6.13;;;12.60;99.90;;;;;;4845586;29;20108;-55
2022/10/11 07:38:41;;;;;;;16.42;6.15;;;12.70;99.90;;;;;;4834457;29;20053;-56
2022/10/11 07:41:08;;;;;;;18.20;5.25;;;12.80;99.90;;;;;;4841754;29;20094;-54
2022/10/11 07:43:36;;;;;;;12.48;6.95;;;13.00;99.90;;;;;;4832115;29;20058;-55
2022/10/11 07:46:04;;;;;;;9.50;5.53;;;13.10;99.90;;;;;;4836288;29;20450;-55
2022/10/11 07:48:33;;;;;;;11.70;6.28;;;13.30;99.90;;;;;;4837003;29;20046;-57
2022/10/11 07:51:13;;;;;;;11.23;5.78;;;13.40;99.90;;;;;;4836971;29;20552;-55
2022/10/11 07:53:42;;;;;;;10.93;6.40;;;13.60;99.90;;;;;;4838524;29;20986;-54
2022/10/11 07:56:11;;;;;;;13.13;7.28;;;13.70;99.90;;;;;;4838067;29;20510;-55
2022/10/11 07:58:39;;;;;;;10.32;6.70;;;13.80;99.90;;;;;;4832599;29;20061;-53
2022/10/11 08:01:07;;;;;;;9.45;7.18;;;13.90;99.90;;;;;;4835338;29;20152;-53
2022/10/11 08:03:34;;;;;;;9.55;6.00;;;14.00;99.90;;;;;;4836218;29;20080;-52
2022/10/11 08:06:04;;;;;;;16.58;7.50;;;14.20;99.90;;;;;;4835384;29;20149;-53
2022/10/11 08:08:31;;;;;;;18.02;7.05;;;14.40;99.90;;;;;;4840597;29;20356;-54
2022/10/11 08:10:58;;;;;;;;;;;14.70;99.90;;;;;;4838479;29;20668;-54
2022/10/11 08:13:25;;;;;;;13.25;7.03;;;14.90;99.90;;;;;;4835350;29;20371;-52
2022/10/11 08:15:52;;;;;;;10.25;6.85;;;15.10;99.90;;;;;;4840524;29;20405;-54
2022/10/11 08:18:19;;;;;;;13.00;7.15;;;15.30;99.90;;;;;;4834663;29;20395;-52
2022/10/11 08:20:46;;;;;;;;;;;15.50;99.90;;;;;;4832511;29;20102;-53
2022/10/11 08:23:12;;;;;;;10.63;6.72;;;15.60;99.90;;;;;;4830145;29;20003;-51
2022/10/11 08:25:42;;;;;;;13.88;7.38;;;15.70;99.90;;;;;;4829664;29;20053;-54
2022/10/11 08:28:14;;;;;;;7.97;5.75;;;15.90;99.90;;;;;;4834714;29;20077;-52
2022/10/11 08:30:52;;;;;;;9.88;7.20;;;15.90;99.90;;;;;;4830571;29;20046;-55
2022/10/11 08:33:21;;;;;;;15.65;7.60;;;16.00;99.90;;;;;;4834677;29;20059;-54
2022/10/11 08:35:49;;;;;;;22.23;8.48;;;16.00;99.90;;;;;;4832613;29;20366;-55
2022/10/11 08:38:16;;;;;;;12.10;8.93;;;16.10;99.90;;;;;;4833745;29;20053;-53
2022/10/11 08:40:48;;;;;;;11.30;7.60;;;16.30;99.90;;;;;;4836711;29;20049;-53
2022/10/11 08:43:34;;;;;;;15.10;8.00;;;16.70;99.90;;;;;;4836362;29;20053;-49
2022/10/11 08:46:02;;;;;;;12.80;7.95;;;17.20;99.90;;;;;;4839634;29;20049;-54
2022/10/11 08:48:35;;;;;;;17.63;9.65;;;17.70;99.90;;;;;;4833201;29;20037;-52
2022/10/11 08:51:11;;;;;;;17.20;9.85;;;18.10;99.90;;;;;;4844514;29;20300;-54
2022/10/11 08:53:42;;;;;;;16.45;10.50;;;18.40;99.90;;;;;;4832352;29;20385;-53
2022/10/11 08:56:12;;;;;;;13.80;7.83;;;18.70;99.90;;;;;;4331646;29;15042106;-52
2022/10/11 08:58:43;;;;;;;12.23;8.48;;;18.90;99.90;;;;;;4834353;29;20367;-53
2022/10/11 09:01:20;;;;;;;12.30;9.40;;;19.00;99.90;;;;;;4836346;29;20065;-51
2022/10/11 09:03:48;;;;;;;15.07;10.10;;;19.20;99.90;;;;;;4837138;29;20576;-51
2022/10/11 09:06:30;;;;;;;11.88;9.98;;;19.30;99.90;;;;;;4831986;29;20044;-53
2022/10/11 09:09:18;;;;;;;15.27;8.55;;;19.30;99.90;;;;;;4838580;29;20054;-51
2022/10/11 09:11:47;;;;;;;;;;;19.40;99.90;;;;;;4837938;29;20049;-56
2022/10/11 09:14:53;;;;;;;11.18;8.60;;;19.60;99.90;;;;;;4837889;29;19934;-56
2022/10/11 09:17:38;;;;;;;12.27;8.13;;;19.80;99.90;;;;;;4835426;29;20075;-56
2022/10/11 09:20:26;;;;;;;13.90;7.80;;;20.20;99.90;;;;;;4833491;29;20145;-54
2022/10/11 09:23:28;;;;;;;11.68;9.00;;;20.50;99.90;;;;;;4833882;29;20063;-56
2022/10/11 09:26:02;;;;;;;18.80;11.05;;;20.70;99.90;;;;;;4833289;29;20124;-51
2022/10/11 09:28:56;;;;;;;14.63;9.73;;;21.10;99.90;;;;;;4834205;29;20140;-65
2022/10/11 09:31:27;;;;;;;9.73;7.88;;;21.20;99.90;;;;;;4831879;29;20299;-56
2022/10/11 09:33:57;;;;;;;20.98;10.73;;;21.30;99.90;;;;;;4835835;29;20053;-56
2022/10/11 09:36:53;;;;;;;13.30;9.70;;;21.40;99.90;;;;;;4831677;29;20660;-57
2022/10/11 09:39:46;;;;;;;17.23;9.88;;;21.40;99.90;;;;;;4835713;29;20638;-54
2022/10/11 09:42:13;;;;;;;14.43;8.27;;;21.30;99.90;;;;;;4830501;29;20060;-57
2022/10/11 09:44:44;;;;;;;8.77;6.85;;;21.40;99.90;;;;;;4830534;29;20110;-51
2022/10/11 09:47:21;;;;;;;9.38;6.53;;;21.40;99.90;;;;;;4833634;29;20049;-53
2022/10/11 09:49:56;;;;;;;9.68;6.70;;;21.60;99.90;;;;;;4836108;29;20480;-54
2022/10/11 09:52:24;;;;;;;8.57;5.63;;;21.60;99.90;;;;;;4833402;29;20257;-50
2022/10/11 09:54:54;;;;;;;6.40;4.93;;;21.40;99.90;;;;;;4836236;29;20053;-53
2022/10/11 09:57:26;;;;;;;9.18;6.25;;;21.30;99.90;;;;;;4836409;29;20053;-52
2022/10/11 10:00:04;;;;;;;8.07;4.82;;;21.40;99.90;;;;;;4833308;29;20249;-53
2022/10/11 10:02:46;;;;;;;6.82;4.40;;;21.30;99.90;;;;;;4837427;29;20557;-57
2022/10/11 10:05:16;;;;;;;11.45;5.20;;;21.30;99.90;;;;;;4838333;29;20072;-55
2022/10/11 10:08:06;;;;;;;6.68;4.80;;;21.10;99.90;;;;;;4831575;29;20407;-54
2022/10/11 10:11:01;;;;;;;12.55;5.90;;;20.80;99.90;;;;;;4829980;29;20141;-55
2022/10/11 10:13:44;;;;;;;8.98;6.05;;;20.40;99.90;;;;;;4831762;29;20066;-54
2022/10/11 10:16:32;;;;;;;11.35;5.85;;;20.20;99.90;;;;;;4831142;29;20735;-57
2022/10/11 10:19:02;;;;;;;11.73;6.63;;;20.00;99.90;;;;;;4832469;29;20398;-52
2022/10/11 10:21:36;;;;;;;18.27;6.88;;;20.10;99.90;;;;;;4829547;29;20057;-53
2022/10/11 10:24:20;;;;;;;10.63;5.35;;;20.30;99.90;;;;;;4830566;29;20424;-52
2022/10/11 10:27:09;;;;;;;10.77;6.75;;;20.50;99.90;;;;;;4829244;29;20049;-52
2022/10/11 10:29:36;;;;;;;8.25;5.85;;;20.60;99.90;;;;;;4832605;29;20049;-55
2022/10/11 10:32:15;;;;;;;12.35;6.55;;;20.80;99.90;;;;;;4835136;29;20767;-54
2022/10/11 10:35:29;;;;;;;12.80;5.68;;;21.10;99.90;;;;;;4831301;29;20050;-55
2022/10/11 10:38:05;;;;;;;13.35;6.18;;;21.40;99.90;;;;;;4835054;29;20052;-51
2022/10/11 10:40:37;;;;;;;12.25;6.88;;;21.50;99.90;;;;;;4831312;29;20049;-54
2022/10/11 10:43:03;;;;;;;16.50;7.25;;;21.50;99.90;;;;;;4832955;29;20052;-54
2022/10/11 10:45:50;;;;;;;13.60;5.55;;;21.50;99.90;;;;;;4833393;29;20084;-53
2022/10/11 10:48:54;;;;;;;10.00;4.90;;;21.60;99.90;;;;;;4831850;29;20046;-55
2022/10/11 10:52:19;;;;;;;11.52;4.95;;;21.70;99.90;;;;;;4837730;29;20136;-53
2022/10/11 10:54:57;;;;;;;13.13;5.03;;;21.60;99.90;;;;;;4810265;29;20049;-55
2022/10/11 10:58:04;;;;;;;17.92;4.75;;;21.60;99.90;;;;;;4835778;29;20049;-55
2022/10/11 11:00:48;;;;;;;8.20;2.83;;;21.40;99.90;;;;;;4839505;29;20830;-54
2022/10/11 11:03:33;;;;;;;13.98;4.80;;;21.20;99.90;;;;;;4837888;29;20053;-53
2022/10/11 11:06:06;;;;;;;12.73;4.05;;;21.10;99.90;;;;;;4836282;29;20052;-54
2022/10/11 11:08:50;;;;;;;9.30;4.15;;;21.00;99.90;;;;;;4832652;29;20529;-52
2022/10/11 11:11:35;;;;;;;14.75;4.65;;;21.10;99.90;;;;;;4835811;29;20106;-57
2022/10/11 11:14:25;;;;;;;8.15;3.35;;;21.20;99.90;;;;;;4835149;29;20178;-56
2022/10/11 11:17:11;;;;;;;11.00;3.30;;;21.40;99.90;;;;;;4836105;29;20650;-55
2022/10/11 11:20:00;;;;;;;14.70;3.75;;;21.40;99.90;;;;;;4837102;29;20128;-51
2022/10/11 11:22:53;;;;;;;12.73;4.35;;;21.50;99.90;;;;;;4837509;29;20398;-54
2022/10/11 11:25:26;;;;;;;17.70;4.10;;;21.70;99.90;;;;;;4832048;29;20449;-54
2022/10/11 11:28:07;;;;;;;16.50;4.18;;;21.70;99.90;;;;;;4829279;29;20133;-56
2022/10/11 11:30:46;;;;;;;12.75;3.42;;;22.00;99.90;;;;;;4829174;29;20054;-56
2022/10/11 11:33:43;;;;;;;12.18;3.80;;;22.10;98.30;;;;;;4834952;29;20061;-54
2022/10/11 11:36:25;;;;;;;9.00;3.92;;;22.20;99.10;;;;;;4835882;29;20564;-54
2022/10/11 11:38:59;;;;;;;11.00;3.42;;;22.40;96.70;;;;;;4830768;29;20566;-53
2022/10/11 11:41:33;;;;;;;7.97;3.08;;;22.60;94.20;;;;;;4830783;29;20049;-53
2022/10/11 11:44:19;;;;;;;15.77;3.72;;;22.60;93.10;;;;;;4833892;29;20061;-52
2022/10/11 11:46:55;;;;;;;8.30;2.55;;;22.70;94.30;;;;;;4836433;29;20053;-52
2022/10/11 11:49:36;;;;;;;11.65;3.13;;;22.60;91.10;;;;;;4830019;29;20114;-57
2022/10/11 11:52:05;;;;;;;11.88;3.08;;;22.50;91.10;;;;;;4833108;29;20606;-57
2022/10/11 11:54:41;;;;;;;11.55;3.80;;;22.60;92.40;;;;;;4832861;29;20045;-60
2022/10/11 11:57:10;;;;;;;10.00;4.05;;;22.60;93.10;;;;;;4833483;29;20145;-53
2022/10/11 11:59:46;;;;;;;12.18;3.75;;;22.70;92.70;;;;;;4829456;29;20516;-56
2022/10/11 12:02:34;;;;;;;10.88;3.90;;;22.70;94.70;;;;;;4836269;29;20060;-55
2022/10/11 12:05:01;;;;;;;14.75;4.65;;;22.80;92.40;;;;;;4833333;29;20769;-53
2022/10/11 12:07:28;;;;;;;10.77;4.72;;;22.80;93.60;;;;;;4839471;29;20168;-53
2022/10/11 12:10:25;;;;;;;17.17;5.60;;;22.80;95.10;;;;;;4834316;29;20508;-52
2022/10/11 12:13:09;;;;;;;8.07;4.25;;;22.80;95.80;;;;;;4830630;29;20508;-50
2022/10/11 12:15:36;;;;;;;9.73;3.45;;;22.80;95.60;;;;;;4834552;29;20767;-55
2022/10/11 12:18:15;;;;;;;12.88;3.75;;;22.70;94.90;;;;;;4834154;29;20109;-54
2022/10/11 12:20:43;;;;;;;17.08;4.40;;;22.60;95.10;;;;;;4843965;29;20656;-57
2022/10/11 12:23:28;;;;;;;10.55;4.50;;;22.50;97.50;;;;;;4835020;29;20047;-51
2022/10/11 12:26:26;;;;;;;12.27;4.32;;;22.40;97.50;;;;;;4834803;29;20054;-50
2022/10/11 12:29:17;;;;;;;11.20;5.60;;;22.30;97.00;;;;;;4824139;29;20064;-48
2022/10/11 12:31:47;;;;;;;14.65;4.53;;;22.10;97.80;;;;;;4835592;29;20058;-56
2022/10/11 12:34:21;;;;;;;19.88;6.47;;;22.10;99.30;;;;;;4835456;29;20095;-55
2022/10/11 12:36:49;;;;;;;10.30;4.03;;;22.10;99.30;;;;;;4834615;29;20846;-53
2022/10/11 12:39:19;;;;;;;16.90;4.72;;;22.10;99.90;;;;;;4831930;29;20056;-48
2022/10/11 12:41:52;;;;;;;11.52;4.90;;;22.30;99.50;;;;;;4837775;29;20411;-51
2022/10/11 12:44:27;;;;;;;16.70;5.78;;;22.30;99.90;;;;;;4833840;29;20246;-52
2022/10/11 12:46:53;;;;;;;14.57;5.53;;;22.30;99.90;;;;;;4836341;29;20046;-50
2022/10/11 12:49:32;;;;;;;13.68;4.28;;;22.20;99.60;;;;;;4833787;29;20053;-53
2022/10/11 12:52:03;;;;;;;18.15;5.53;;;22.20;99.90;;;;;;4831663;29;20095;-54
2022/10/11 12:54:39;;;;;;;16.05;5.03;;;22.30;99.90;;;;;;4841016;29;20049;-51
2022/10/11 12:57:40;;;;;;;17.23;5.88;;;22.30;99.30;;;;;;4840925;29;20084;-53
2022/10/11 13:00:31;;;;;;;10.88;4.80;;;22.30;99.00;;;;;;4835550;29;20493;-51
2022/10/11 13:03:01;;;;;;;17.70;4.55;;;22.20;99.10;;;;;;4833912;29;20631;-52
2022/10/11 13:05:41;;;;;;;13.13;4.90;;;22.20;99.50;;;;;;4833277;29;20477;-50
2022/10/11 13:08:34;;;;;;;18.98;5.75;;;22.10;99.90;;;;;;4833900;29;20585;-50
2022/10/11 13:11:07;;;;;;;16.45;4.60;;;22.00;99.90;;;;;;4837976;29;20064;-54
2022/10/11 13:13:47;;;;;;;12.70;4.70;;;21.90;99.90;;;;;;4838457;29;20177;-52
2022/10/11 13:16:16;;;;;;;17.75;4.70;;;21.90;99.90;;;;;;4837519;29;20317;-51
2022/10/11 13:18:46;;;;;;;19.58;7.07;;;21.90;99.90;;;;;;4840401;29;20432;-54